Time;durP1;ratioP1;P1;durP2;ratioP2;P2;SDS_P1;SDS_P2;PMS_P1;PMS_P2;Temp;Humidity;BMP_temperature;BMP_pressure;BME280_temperature;BME280_humidity;BME280_pressure;Samples;Min_cycle;Max_cycle;Signal;HPM_P1;HPM_P2
2023/10/07 00:01:00;;;;;;;14.43;5.83;;;;;;;11.98;76.65;100791.13;6155753;23;20024;-90
2023/10/07 00:03:29;;;;;;;14.80;6.95;;;;;;;12.03;76.26;100796.09;6179248;23;20414;-90
2023/10/07 00:06:02;;;;;;;15.60;6.45;;;;;;;11.98;76.29;100787.63;6180433;23;20279;-90
2023/10/07 00:08:29;;;;;;;17.00;6.70;;;;;;;11.92;75.95;100775.66;6155223;23;20024;-90
2023/10/07 00:11:00;;;;;;;12.70;6.38;;;;;;;11.90;75.44;100778.44;6153844;23;20028;-90
2023/10/07 00:13:31;;;;;;;16.65;6.50;;;;;;;11.88;75.06;100780.41;6180392;23;20070;-90
2023/10/07 00:15:59;;;;;;;15.77;6.25;;;;;;;11.90;75.35;100778.44;6179791;23;20099;-89
2023/10/07 00:18:26;;;;;;;14.90;6.85;;;;;;;11.86;75.41;100778.78;6178985;23;20821;-89
2023/10/07 00:20:54;;;;;;;16.60;6.55;;;;;;;11.88;75.81;100783.06;6179252;23;20040;-89
2023/10/07 00:23:23;;;;;;;11.55;5.82;;;;;;;11.91;75.95;100772.16;6179503;23;20083;-90
2023/10/07 00:25:51;;;;;;;16.00;6.75;;;;;;;11.89;75.75;100770.59;6179119;23;20456;-90
2023/10/07 00:28:19;;;;;;;16.65;6.32;;;;;;;11.90;76.08;100759.81;6179219;23;20104;-90
2023/10/07 00:30:49;;;;;;;16.25;6.75;;;;;;;11.90;75.73;100759.81;6130520;23;20095;-90
2023/10/07 00:33:21;;;;;;;13.85;6.22;;;;;;;11.82;75.61;100775.50;6129796;23;20021;-90
2023/10/07 00:35:50;;;;;;;11.77;6.10;;;;;;;11.80;75.39;100777.44;6156005;23;20017;-89
2023/10/07 00:38:16;;;;;;;17.00;6.43;;;;;;;11.76;75.55;100781.31;6154109;23;20927;-90
2023/10/07 00:40:52;;;;;;;14.95;6.07;;;;;;;11.75;75.34;100768.97;6203599;23;20020;-90
2023/10/07 00:43:27;;;;;;;15.38;5.95;;;;;;;11.71;74.83;100767.53;6180203;23;20024;-89
2023/10/07 00:48:52;;;;;;;11.57;6.10;;;;;;;11.73;74.82;100770.91;6181139;23;20023;-90
2023/10/07 00:51:35;;;;;;;13.07;5.80;;;;;;;11.59;74.90;100758.69;6179788;23;20020;-89
2023/10/07 00:54:18;;;;;;;11.25;5.43;;;;;;;11.64;74.57;100766.31;6156524;23;20032;-90
2023/10/07 00:56:52;;;;;;;13.15;5.75;;;;;;;11.67;74.80;100777.53;6152661;23;20091;-90
2023/10/07 00:59:19;;;;;;;11.45;5.97;;;;;;;11.59;75.27;100765.81;6203917;23;20028;-90
2023/10/07 01:01:50;;;;;;;13.18;6.05;;;;;;;11.60;75.01;100759.53;6153899;23;20040;-89
2023/10/07 01:04:18;;;;;;;16.92;6.40;;;;;;;11.59;75.13;100763.16;6180079;23;20025;-90
2023/10/07 01:06:45;;;;;;;12.95;5.75;;;;;;;11.65;75.14;100744.03;6154012;23;20050;-91
2023/10/07 01:09:22;;;;;;;15.13;6.80;;;;;;;11.66;74.83;100740.44;6154343;23;20591;-90
2023/10/07 01:11:58;;;;;;;12.95;6.53;;;;;;;11.68;75.19;100738.50;6131377;23;20032;-90
2023/10/07 01:14:33;;;;;;;16.13;7.60;;;;;;;11.72;75.03;100745.25;6131461;23;20345;-90
2023/10/07 01:17:00;;;;;;;18.85;7.13;;;;;;;11.69;75.50;100749.00;6154902;23;20020;-91
2023/10/07 01:19:29;;;;;;;14.10;7.05;;;;;;;11.63;75.07;100741.53;6154590;23;20572;-91
2023/10/07 01:22:18;;;;;;;15.88;6.38;;;;;;;11.66;75.22;100745.75;6179421;23;20341;-90
2023/10/07 01:24:45;;;;;;;15.50;6.30;;;;;;;11.57;75.55;100749.13;6158343;23;20575;-89
2023/10/07 01:27:42;;;;;;;15.48;7.05;;;;;;;11.58;75.85;100749.03;6153776;23;20493;-90
2023/10/07 01:30:15;;;;;;;17.15;6.55;;;;;;;11.55;76.22;100746.59;6206359;23;20051;-89
2023/10/07 01:35:33;;;;;;;16.02;7.45;;;;;;;11.52;76.19;100750.34;6179088;23;20029;-89
2023/10/07 01:38:06;;;;;;;21.25;7.65;;;;;;;11.49;76.59;100745.25;6177883;23;20021;-88
2023/10/07 01:40:54;;;;;;;24.30;8.27;;;;;;;11.55;77.01;100751.94;6205567;23;20020;-90
2023/10/07 01:43:23;;;;;;;20.63;8.30;;;;;;;11.50;77.89;100746.13;6203388;23;20034;-89
2023/10/07 01:45:52;;;;;;;19.20;7.25;;;;;;;11.46;78.26;100736.66;6177533;23;20029;-88
2023/10/07 01:48:20;;;;;;;21.55;7.57;;;;;;;11.50;78.17;100748.78;6154339;23;20020;-90
2023/10/07 01:50:49;;;;;;;20.83;7.60;;;;;;;11.54;78.13;100747.56;6153994;23;20496;-88
2023/10/07 01:53:16;;;;;;;17.45;7.68;;;;;;;11.53;78.76;100756.50;6202456;23;20024;-89
2023/10/07 01:55:44;;;;;;;25.60;8.15;;;;;;;11.50;78.94;100754.09;6178977;23;20096;-89
2023/10/07 01:58:16;;;;;;;21.38;7.57;;;;;;;11.40;79.48;100753.97;6153041;23;20024;-89
2023/10/07 02:00:46;;;;;;;18.92;6.88;;;;;;;11.46;78.76;100753.47;6203749;23;20384;-89
2023/10/07 02:03:16;;;;;;;14.40;6.85;;;;;;;11.48;78.75;100758.69;6153088;23;20043;-89
2023/10/07 02:05:47;;;;;;;14.27;6.68;;;;;;;11.49;78.87;100758.53;6154110;23;20099;-88
2023/10/07 02:08:20;;;;;;;16.88;6.68;;;;;;;11.46;78.55;100750.81;6153228;23;20024;-88
2023/10/07 02:10:47;;;;;;;;;;;;;;;11.25;80.88;100763.94;6179629;23;20020;-89
2023/10/07 02:13:19;;;;;;;20.77;7.60;;;;;;;11.42;80.16;100762.66;6128504;23;19932;-89
2023/10/07 02:15:48;;;;;;;25.95;7.68;;;;;;;11.43;80.52;100756.38;6178330;23;20036;-89
2023/10/07 02:18:15;;;;;;;19.92;7.78;;;;;;;11.45;80.62;100751.78;6177275;23;20025;-89
2023/10/07 02:23:40;;;;;;;14.98;6.75;;;;;;;11.49;80.16;100739.94;6202368;23;20445;-89
2023/10/07 02:26:14;;;;;;;13.75;6.97;;;;;;;11.49;80.60;100742.59;6155461;23;20657;-89
2023/10/07 02:28:44;;;;;;;15.43;6.70;;;;;;;11.55;80.18;100735.97;6129811;23;20024;-89
2023/10/07 02:31:18;;;;;;;17.45;6.65;;;;;;;11.52;79.85;100749.47;6178272;23;20183;-89
2023/10/07 02:33:46;;;;;;;14.10;6.40;;;;;;;11.48;79.75;100753.38;6179357;23;20045;-90
2023/10/07 02:36:28;;;;;;;22.17;6.65;;;;;;;11.46;79.44;100755.28;6152499;23;20499;-89
2023/10/07 02:39:01;;;;;;;20.20;6.35;;;;;;;11.40;79.73;100761.94;6155971;23;20092;-88
2023/10/07 02:41:31;;;;;;;16.70;6.80;;;;;;;11.37;80.16;100769.28;6154768;23;20021;-89
2023/10/07 02:44:08;;;;;;;16.90;6.97;;;;;;;11.33;80.61;100773.16;6201520;23;20021;-88
2023/10/07 02:46:36;;;;;;;11.95;5.22;;;;;;;11.37;80.29;100767.50;6156400;23;20013;-89
2023/10/07 02:49:09;;;;;;;12.68;6.30;;;;;;;11.34;80.79;100753.56;6178461;23;20016;-88
2023/10/07 02:51:39;;;;;;;15.38;5.53;;;;;;;11.33;80.43;100763.38;6203079;23;20333;-89
2023/10/07 02:54:15;;;;;;;10.20;5.55;;;;;;;11.29;80.28;100757.41;6176423;23;20039;-88
2023/10/07 02:56:54;;;;;;;11.18;4.78;;;;;;;11.26;80.32;100759.47;6202688;23;20071;-88
2023/10/07 02:59:29;;;;;;;13.43;5.32;;;;;;;11.20;79.77;100750.16;6130769;23;20036;-89
2023/10/07 03:02:12;;;;;;;12.15;5.18;;;;;;;11.15;79.84;100749.66;6178110;23;20020;-88
2023/10/07 03:04:43;;;;;;;11.43;5.68;;;;;;;11.21;80.10;100757.16;6180504;23;20020;-89
2023/10/07 03:07:14;;;;;;;9.70;5.35;;;;;;;11.20;79.89;100767.94;6176835;23;20028;-88
2023/10/07 03:09:52;;;;;;;12.95;6.25;;;;;;;11.13;79.53;100762.22;6152962;23;20087;-88
2023/10/07 03:12:29;;;;;;;12.13;5.30;;;;;;;11.22;79.46;100769.50;6155219;23;20064;-88
2023/10/07 03:15:05;;;;;;;15.20;5.72;;;;;;;11.14;79.55;100776.34;6202237;23;20463;-89
2023/10/07 03:17:39;;;;;;;11.80;5.32;;;;;;;11.15;79.37;100781.56;6151789;23;20317;-88
2023/10/07 03:28:21;;;;;;;12.65;5.93;;;;;;;11.04;79.77;100793.03;6181107;23;20013;-90
2023/10/07 03:30:55;;;;;;;9.90;4.75;;;;;;;11.08;79.94;100790.97;6203023;23;20098;-89
2023/10/07 03:33:45;;;;;;;9.43;5.00;;;;;;;11.12;80.30;100792.44;6155829;23;20491;-90
2023/10/07 03:38:43;;;;;;;15.35;5.20;;;;;;;11.10;80.39;100804.16;6179911;23;20130;-89
2023/10/07 03:41:10;;;;;;;18.02;10.82;;;;;;;11.13;80.48;100803.91;6150411;23;20028;-89
2023/10/07 03:43:38;;;;;;;9.68;5.50;;;;;;;11.11;80.67;100804.03;6179152;23;20016;-88
2023/10/07 03:46:05;;;;;;;8.65;5.10;;;;;;;11.17;80.62;100810.69;6155706;23;20036;-89
2023/10/07 03:48:32;;;;;;;8.93;4.53;;;;;;;11.14;80.80;100806.44;6154217;23;20091;-89
2023/10/07 03:51:04;;;;;;;12.63;4.88;;;;;;;11.16;81.01;100791.22;6178964;23;20025;-89
2023/10/07 03:53:32;;;;;;;10.38;5.32;;;;;;;11.18;80.94;100783.16;6155329;23;20032;-88
2023/10/07 03:56:02;;;;;;;15.30;6.65;;;;;;;11.21;80.50;100790.88;6178651;23;20696;-88
2023/10/07 03:58:32;;;;;;;12.52;6.03;;;;;;;11.16;80.05;100782.41;6153565;23;20013;-88
2023/10/07 04:01:11;;;;;;;13.00;5.55;;;;;;;11.13;79.58;100785.31;6203366;23;20040;-88
2023/10/07 04:03:39;;;;;;;12.18;5.93;;;;;;;11.10;79.56;100797.03;6203799;23;20051;-88
2023/10/07 04:06:09;;;;;;;12.05;6.25;;;;;;;11.02;79.40;100810.03;6202436;23;20048;-88
2023/10/07 04:08:36;;;;;;;14.73;7.45;;;;;;;10.99;78.64;100819.09;6149277;23;20020;-89
2023/10/07 04:11:03;;;;;;;12.10;5.88;;;;;;;11.00;78.51;100804.00;6178807;23;20021;-88
2023/10/07 04:13:30;;;;;;;11.65;6.15;;;;;;;10.92;78.10;100799.25;6178930;23;20083;-89
2023/10/07 04:15:59;;;;;;;9.90;5.93;;;;;;;10.91;78.31;100784.25;6153502;23;20025;-88
2023/10/07 04:18:35;;;;;;;12.88;6.68;;;;;;;10.93;78.33;100790.28;6154500;23;20023;-88
2023/10/07 04:21:02;;;;;;;12.48;6.30;;;;;;;10.99;78.29;100789.84;6180919;23;20021;-89
2023/10/07 04:23:29;;;;;;;8.68;4.85;;;;;;;10.99;77.95;100779.22;6178451;23;20025;-89
2023/10/07 04:26:03;;;;;;;9.45;4.55;;;;;;;10.94;77.31;100785.81;6154357;23;20441;-88
2023/10/07 04:28:31;;;;;;;12.18;7.22;;;;;;;10.84;77.49;100781.22;6156162;23;20099;-89
2023/10/07 04:30:58;;;;;;;13.05;6.72;;;;;;;10.82;76.96;100777.81;6203257;23;20016;-89
2023/10/07 04:33:39;;;;;;;11.85;5.50;;;;;;;10.80;76.76;100789.53;6154544;23;20071;-88
2023/10/07 04:36:13;;;;;;;8.27;5.22;;;;;;;10.78;77.18;100789.63;6156926;23;20028;-89
2023/10/07 04:38:53;;;;;;;12.88;5.70;;;;;;;10.74;77.33;100792.66;6205163;23;20055;-89
2023/10/07 04:43:59;;;;;;;8.80;4.68;;;;;;;10.77;77.67;100790.59;6177396;23;20030;-89
2023/10/07 04:46:29;;;;;;;8.45;5.05;;;;;;;10.76;77.12;100782.72;6179922;23;20314;-88
2023/10/07 04:49:12;;;;;;;9.30;4.95;;;;;;;10.76;76.92;100801.31;6154576;23;20422;-88
2023/10/07 04:54:10;;;;;;;8.68;4.75;;;;;;;10.66;77.32;100801.19;6179563;23;20020;-90
2023/10/07 04:56:39;;;;;;;9.18;4.47;;;;;;;10.60;76.79;100805.09;6180291;23;20016;-89
2023/10/07 04:59:06;;;;;;;11.75;4.97;;;;;;;10.69;77.09;100808.06;6179078;23;20025;-89
2023/10/07 05:01:34;;;;;;;15.45;4.90;;;;;;;10.63;77.45;100804.03;6179560;23;20021;-88
2023/10/07 05:04:09;;;;;;;21.75;5.28;;;;;;;10.63;78.67;100804.91;6154303;23;20032;-89
2023/10/07 05:06:38;;;;;;;11.18;4.60;;;;;;;10.60;79.17;100801.59;6202638;23;20075;-89
2023/10/07 05:09:18;;;;;;;11.40;4.95;;;;;;;10.52;79.67;100804.81;6153465;23;20020;-89
2023/10/07 05:11:47;;;;;;;12.25;4.50;;;;;;;10.53;79.97;100797.69;6178255;23;20025;-89
2023/10/07 05:14:18;;;;;;;8.00;5.00;;;;;;;10.59;79.55;100798.13;6177916;23;20021;-90
2023/10/07 05:16:48;;;;;;;12.30;5.45;;;;;;;10.57;79.76;100796.53;6154719;23;20017;-89
2023/10/07 05:19:22;;;;;;;7.43;4.95;;;;;;;10.57;79.55;100793.88;6178565;23;20067;-88
2023/10/07 05:21:59;;;;;;;7.90;4.82;;;;;;;10.61;79.65;100784.72;6129568;23;20020;-88
2023/10/07 05:24:28;;;;;;;9.25;5.28;;;;;;;10.67;79.60;100786.09;6203107;23;20055;-89
2023/10/07 05:26:57;;;;;;;7.97;4.57;;;;;;;10.62;79.66;100773.97;6178912;23;20019;-89
2023/10/07 05:29:24;;;;;;;10.30;5.13;;;;;;;10.59;79.39;100763.59;6178193;23;20031;-90
2023/10/07 05:31:51;;;;;;;11.27;5.57;;;;;;;10.57;79.95;100769.97;6178513;23;20055;-90
2023/10/07 05:34:18;;;;;;;12.70;5.32;;;;;;;10.59;79.92;100776.88;6178220;23;20106;-89
2023/10/07 05:36:46;;;;;;;10.65;5.68;;;;;;;10.58;79.75;100777.84;6154556;23;20021;-89
2023/10/07 05:39:15;;;;;;;9.75;5.35;;;;;;;10.52;80.19;100772.13;6177896;23;20103;-90
2023/10/07 05:41:42;;;;;;;8.77;4.38;;;;;;;10.55;79.65;100782.50;6177123;23;20107;-90
2023/10/07 05:44:14;;;;;;;10.02;5.65;;;;;;;10.58;80.08;100766.34;6177699;23;20185;-90
2023/10/07 05:46:42;;;;;;;7.43;4.60;;;;;;;10.57;80.64;100776.13;6153945;23;20437;-90
2023/10/07 05:49:10;;;;;;;15.02;5.30;;;;;;;10.50;80.73;100780.19;6178532;23;20032;-90
2023/10/07 05:51:37;;;;;;;8.95;4.68;;;;;;;10.58;80.35;100787.59;6153089;23;20027;-89
2023/10/07 05:54:05;;;;;;;30.13;5.90;;;;;;;10.57;80.37;100791.22;6201583;23;20123;-89
2023/10/07 05:56:32;;;;;;;52.22;7.85;;;;;;;10.57;80.68;100805.34;6177166;23;20024;-88
2023/10/07 05:59:01;;;;;;;9.68;5.53;;;;;;;10.51;81.15;100805.81;6178306;23;20083;-89
2023/10/07 06:01:33;;;;;;;19.85;5.80;;;;;;;10.49;81.62;100809.53;6153672;23;20021;-90
2023/10/07 06:04:00;;;;;;;15.20;5.40;;;;;;;10.52;81.76;100807.47;6129669;23;20437;-90
2023/10/07 06:06:30;;;;;;;8.27;5.32;;;;;;;10.49;81.82;100804.22;6177880;23;20039;-88
2023/10/07 06:09:00;;;;;;;8.55;4.93;;;;;;;10.54;82.00;100797.59;6202457;23;20024;-88
2023/10/07 06:11:34;;;;;;;12.30;5.60;;;;;;;10.52;81.89;100803.97;6177282;23;20032;-89
2023/10/07 06:14:04;;;;;;;16.80;6.50;;;;;;;10.58;81.55;100816.81;6152665;23;20023;-89
2023/10/07 06:16:31;;;;;;;10.95;5.57;;;;;;;10.57;81.37;100810.66;6128525;23;20020;-89
2023/10/07 06:18:58;;;;;;;12.43;5.97;;;;;;;10.57;81.58;100813.31;6176497;23;20314;-89
2023/10/07 06:21:27;;;;;;;12.82;5.90;;;;;;;10.58;81.88;100815.03;6152924;23;20345;-89
2023/10/07 06:23:58;;;;;;;11.10;5.80;;;;;;;10.57;82.11;100825.75;6152485;23;20025;-88
2023/10/07 06:26:25;;;;;;;14.70;5.78;;;;;;;10.61;81.80;100829.88;6178331;23;20443;-89
2023/10/07 06:28:55;;;;;;;12.88;6.22;;;;;;;10.62;82.27;100821.78;6151817;23;20512;-89
2023/10/07 06:31:22;;;;;;;10.57;5.88;;;;;;;10.70;82.17;100817.72;6177627;23;20091;-89
2023/10/07 06:33:59;;;;;;;14.15;5.85;;;;;;;10.73;82.13;100806.88;6152093;23;20031;-90
2023/10/07 06:36:27;;;;;;;16.25;6.30;;;;;;;10.75;81.94;100821.72;6154850;23;20723;-90
2023/10/07 06:38:58;;;;;;;15.27;6.38;;;;;;;10.71;82.17;100827.38;6152206;23;20029;-89
2023/10/07 06:41:29;;;;;;;14.45;6.55;;;;;;;10.75;82.09;100826.22;6178392;23;20036;-89
2023/10/07 06:44:02;;;;;;;12.88;6.97;;;;;;;10.72;82.17;100826.44;6152257;23;20016;-89
2023/10/07 06:46:44;;;;;;;13.75;6.85;;;;;;;10.70;82.20;100829.19;6180640;23;20029;-89
2023/10/07 06:49:19;;;;;;;10.23;5.70;;;;;;;10.72;82.09;100842.38;6154230;23;20024;-90
2023/10/07 06:51:56;;;;;;;14.27;6.60;;;;;;;10.72;81.32;100834.41;6203727;23;20017;-89
2023/10/07 06:54:25;;;;;;;14.35;6.22;;;;;;;10.77;81.62;100827.78;6179882;23;20088;-89
2023/10/07 06:56:54;;;;;;;12.38;6.45;;;;;;;10.76;82.02;100818.13;6155026;23;20075;-90
2023/10/07 06:59:27;;;;;;;13.98;7.53;;;;;;;10.80;82.33;100822.25;6204346;23;20080;-89
2023/10/07 07:01:55;;;;;;;13.32;6.78;;;;;;;10.84;82.20;100825.53;6131260;23;20027;-89
2023/10/07 07:04:23;;;;;;;12.52;8.27;;;;;;;10.83;82.32;100826.47;6204661;23;20458;-89
2023/10/07 07:06:58;;;;;;;20.50;10.05;;;;;;;10.87;82.08;100833.28;6180421;23;20024;-90
2023/10/07 07:12:16;;;;;;;20.83;8.18;;;;;;;10.86;81.91;100826.25;6159596;23;20027;-89
2023/10/07 07:15:04;;;;;;;11.00;6.70;;;;;;;10.79;82.18;100828.53;6180340;23;20700;-88
2023/10/07 07:22:38;;;;;;;11.13;6.05;;;;;;;10.87;82.29;100835.94;6182072;23;20028;-89
2023/10/07 07:25:10;;;;;;;14.90;7.15;;;;;;;10.91;82.06;100832.06;6156154;23;20016;-89
2023/10/07 07:27:48;;;;;;;10.68;5.95;;;;;;;10.91;82.17;100836.53;6158111;23;20115;-90
2023/10/07 07:30:31;;;;;;;10.88;6.70;;;;;;;10.93;81.75;100838.13;6181024;23;20028;-89
2023/10/07 07:33:06;;;;;;;12.18;6.65;;;;;;;10.93;82.31;100846.09;6184227;23;20040;-90
2023/10/07 07:35:40;;;;;;;14.23;7.88;;;;;;;10.98;82.21;100838.63;6156948;23;20020;-89
2023/10/07 07:38:30;;;;;;;13.95;7.43;;;;;;;10.98;82.36;100845.78;6182358;23;20396;-90
2023/10/07 07:41:11;;;;;;;12.77;7.43;;;;;;;11.01;82.39;100838.41;6180600;23;20017;-90
2023/10/07 07:43:39;;;;;;;10.40;6.22;;;;;;;11.04;82.32;100832.00;6159111;23;20019;-90
2023/10/07 07:48:56;;;;;;;11.73;6.47;;;;;;;11.07;82.76;100835.31;6206856;23;20445;-91
2023/10/07 07:51:25;;;;;;;11.68;6.32;;;;;;;11.13;82.80;100822.53;6156958;23;20043;-89
2023/10/07 07:53:53;;;;;;;12.63;6.80;;;;;;;11.20;83.24;100827.25;6156617;23;20047;-90
2023/10/07 07:56:20;;;;;;;11.70;7.05;;;;;;;11.22;83.53;100821.81;6181368;23;20031;-89
2023/10/07 07:58:47;;;;;;;11.63;6.97;;;;;;;11.26;83.42;100831.25;6156236;23;20437;-89
2023/10/07 08:01:22;;;;;;;10.48;6.68;;;;;;;11.26;83.59;100842.75;6181457;23;20020;-89
2023/10/07 08:03:49;;;;;;;9.18;6.13;;;;;;;11.25;83.16;100837.56;6156477;23;20047;-89
2023/10/07 08:06:20;;;;;;;11.10;6.78;;;;;;;11.25;83.36;100848.19;6155814;23;20028;-89
2023/10/07 08:08:48;;;;;;;11.90;7.22;;;;;;;11.24;82.96;100843.81;6206433;23;20020;-89
2023/10/07 08:11:17;;;;;;;12.13;7.07;;;;;;;11.24;83.69;100846.47;6181244;23;20115;-89
2023/10/07 08:13:45;;;;;;;14.27;7.57;;;;;;;11.23;83.97;100858.94;6132087;23;20044;-89
2023/10/07 08:16:18;;;;;;;13.73;6.97;;;;;;;11.28;83.99;100864.75;6154938;23;20040;-89
2023/10/07 08:18:50;;;;;;;9.57;5.22;;;;;;;11.27;84.27;100864.84;6180372;23;20024;-89
2023/10/07 08:21:17;;;;;;;13.07;6.22;;;;;;;11.28;84.01;100867.41;6180977;23;20029;-89
2023/10/07 08:23:46;;;;;;;11.88;6.80;;;;;;;11.28;84.31;100887.84;6181283;23;20345;-89
2023/10/07 08:26:20;;;;;;;13.88;7.22;;;;;;;11.31;84.27;100874.31;6181034;23;20044;-89
2023/10/07 08:28:59;;;;;;;13.07;6.30;;;;;;;11.36;84.28;100873.97;6132346;23;20040;-89
2023/10/07 08:31:44;;;;;;;13.98;6.43;;;;;;;11.41;84.21;100864.66;6158875;23;20039;-90
2023/10/07 08:34:11;;;;;;;12.43;6.60;;;;;;;11.43;84.29;100868.06;6155387;23;20016;-87
2023/10/07 08:36:43;;;;;;;11.18;6.28;;;;;;;11.50;84.10;100860.50;6156122;23;20434;-89
2023/10/07 08:39:11;;;;;;;15.15;6.78;;;;;;;11.52;84.47;100863.84;6180000;23;20055;-90
2023/10/07 08:41:40;;;;;;;13.30;6.53;;;;;;;11.58;84.25;100850.09;6154624;23;20021;-88
2023/10/07 08:44:15;;;;;;;15.88;7.05;;;;;;;11.63;84.07;100850.59;6155680;23;20083;-89
2023/10/07 08:46:52;;;;;;;11.98;6.80;;;;;;;11.66;84.00;100845.03;6157836;23;20013;-90
2023/10/07 08:49:26;;;;;;;14.35;6.68;;;;;;;11.66;83.75;100837.06;6157861;23;20017;-88
2023/10/07 08:51:56;;;;;;;12.95;6.93;;;;;;;11.70;84.24;100841.19;6156377;23;20020;-89
2023/10/07 08:54:26;;;;;;;23.08;9.90;;;;;;;11.74;84.35;100842.63;6156143;23;20082;-88
2023/10/07 08:56:57;;;;;;;14.68;8.05;;;;;;;11.76;84.65;100847.00;6205539;23;20024;-88
2023/10/07 08:59:33;;;;;;;13.75;7.68;;;;;;;11.76;85.28;100853.16;6179754;23;20030;-88
2023/10/07 09:02:00;;;;;;;14.00;8.93;;;;;;;11.78;85.23;100855.69;6206375;23;20337;-88
2023/10/07 09:04:31;;;;;;;16.88;8.65;;;;;;;11.78;85.58;100845.03;6204174;23;20016;-88
2023/10/07 09:07:00;;;;;;;15.63;8.35;;;;;;;11.79;85.72;100855.59;6180822;23;20104;-88
2023/10/07 09:09:38;;;;;;;19.10;9.70;;;;;;;11.78;85.85;100861.88;6180725;23;20023;-88
2023/10/07 09:12:14;;;;;;;17.65;9.65;;;;;;;11.75;85.77;100862.09;6156262;23;20020;-88
2023/10/07 09:14:57;;;;;;;17.02;8.73;;;;;;;11.80;85.57;100856.41;6154480;23;20024;-89
2023/10/07 09:17:26;;;;;;;14.70;8.65;;;;;;;11.81;85.78;100856.31;6204569;23;20025;-88
2023/10/07 09:19:58;;;;;;;14.55;8.45;;;;;;;11.85;85.97;100851.59;6180144;23;20078;-88
2023/10/07 09:22:33;;;;;;;15.35;8.65;;;;;;;11.89;85.74;100853.94;6156481;23;20048;-89
2023/10/07 09:25:16;;;;;;;19.52;9.95;;;;;;;11.92;85.61;100860.81;6156796;23;20016;-88
2023/10/07 09:27:58;;;;;;;21.88;10.18;;;;;;;11.95;85.60;100857.91;6179629;23;20024;-88
2023/10/07 09:33:13;;;;;;;24.92;11.73;;;;;;;12.00;85.78;100857.56;6183078;23;20437;-88
2023/10/07 09:35:43;;;;;;;26.33;13.00;;;;;;;12.02;85.82;100853.81;6179115;23;20079;-87
2023/10/07 09:38:33;;;;;;;28.55;13.18;;;;;;;12.07;85.84;100853.47;6180487;23;20044;-87
2023/10/07 09:43:37;;;;;;;27.17;14.15;;;;;;;12.13;86.11;100866.28;6180183;23;20020;-87
2023/10/07 09:46:07;;;;;;;30.20;13.25;;;;;;;12.16;86.35;100866.91;6204167;23;20032;-89
2023/10/07 09:48:41;;;;;;;27.15;12.95;;;;;;;12.15;86.92;100870.53;6156282;23;20040;-87
2023/10/07 09:51:24;;;;;;;23.27;12.25;;;;;;;12.19;87.19;100868.47;6204106;23;20024;-89
2023/10/07 09:53:51;;;;;;;20.92;10.60;;;;;;;12.23;87.08;100861.09;6182203;23;20025;-87
2023/10/07 09:56:59;;;;;;;20.45;10.98;;;;;;;12.24;87.82;100860.97;6204579;23;20420;-87
2023/10/07 09:59:44;;;;;;;22.15;10.02;;;;;;;12.31;87.24;100864.84;6204101;23;20023;-87
2023/10/07 10:02:25;;;;;;;27.90;11.60;;;;;;;12.35;87.58;100857.47;6130041;23;20023;-88
2023/10/07 10:05:27;;;;;;;16.88;8.43;;;;;;;12.39;87.95;100856.25;6204357;23;20021;-88
2023/10/07 10:08:44;;;;;;;17.10;9.05;;;;;;;12.47;88.90;100848.50;6153925;23;20120;-89
2023/10/07 10:11:30;;;;;;;21.90;8.30;;;;;;;12.58;88.10;100852.94;6129889;23;20028;-87
2023/10/07 10:16:48;;;;;;;17.77;8.43;;;;;;;12.67;87.87;100852.22;6204397;23;20020;-88
2023/10/07 10:19:29;;;;;;;17.52;7.53;;;;;;;12.64;89.23;100848.94;6179621;23;20100;-88
2023/10/07 10:22:07;;;;;;;13.80;7.38;;;;;;;12.65;88.57;100847.97;6179507;23;20016;-88
2023/10/07 10:24:39;;;;;;;12.68;6.43;;;;;;;12.66;88.03;100829.19;6204345;23;20029;-88
2023/10/07 10:27:09;;;;;;;13.77;7.13;;;;;;;12.73;87.77;100827.72;6179290;23;20028;-86
2023/10/07 10:30:04;;;;;;;13.82;7.28;;;;;;;12.74;88.52;100831.22;6180012;23;20021;-88
2023/10/07 10:32:36;;;;;;;15.00;7.28;;;;;;;12.81;88.13;100832.41;6202075;23;20025;-87
2023/10/07 10:35:06;;;;;;;14.75;6.57;;;;;;;12.88;88.72;100832.78;6179081;23;20317;-89
2023/10/07 10:37:34;;;;;;;13.95;7.30;;;;;;;12.91;89.10;100841.34;6203966;23;20041;-88
2023/10/07 10:40:14;;;;;;;16.05;7.45;;;;;;;12.92;90.17;100837.72;6178994;23;20095;-88
2023/10/07 10:42:43;;;;;;;16.13;7.63;;;;;;;12.98;89.52;100831.03;6157900;23;20016;-87
2023/10/07 10:45:29;;;;;;;17.23;7.47;;;;;;;12.97;90.04;100818.66;6182504;23;20025;-88
2023/10/07 10:47:59;;;;;;;17.58;7.03;;;;;;;13.02;89.41;100819.13;6184175;23;20028;-88
2023/10/07 10:50:29;;;;;;;21.13;7.53;;;;;;;13.07;89.82;100827.59;6182829;23;20091;-88
2023/10/07 10:52:59;;;;;;;15.25;6.63;;;;;;;13.14;90.41;100817.28;6157466;23;20036;-89
2023/10/07 10:55:37;;;;;;;15.85;7.03;;;;;;;13.15;90.45;100817.16;6183321;23;20052;-88
2023/10/07 10:58:17;;;;;;;16.95;7.32;;;;;;;13.15;90.74;100800.28;6182085;23;20091;-88
2023/10/07 11:00:49;;;;;;;18.58;7.75;;;;;;;13.20;90.42;100806.97;6232320;23;20013;-88
2023/10/07 11:03:20;;;;;;;15.27;7.63;;;;;;;13.22;90.58;100809.47;6182574;23;20020;-87
2023/10/07 11:05:50;;;;;;;14.13;7.30;;;;;;;13.28;90.59;100816.13;6182776;23;20017;-87
2023/10/07 11:08:22;;;;;;;18.33;7.18;;;;;;;13.28;90.57;100810.81;6207061;23;20505;-88
2023/10/07 11:10:55;;;;;;;13.85;6.70;;;;;;;13.32;90.97;100809.59;6157741;23;20027;-87
2023/10/07 11:13:22;;;;;;;16.08;6.65;;;;;;;13.30;90.44;100803.53;6207918;23;20023;-88
2023/10/07 11:15:58;;;;;;;18.02;7.32;;;;;;;13.34;90.66;100807.63;6182774;23;20043;-87
2023/10/07 11:18:25;;;;;;;16.02;6.50;;;;;;;13.36;91.09;100795.88;6183445;23;20037;-88
2023/10/07 11:20:54;;;;;;;17.02;6.80;;;;;;;13.38;91.32;100799.25;6207908;23;20028;-87
2023/10/07 11:23:21;;;;;;;13.02;6.30;;;;;;;13.40;91.41;100796.44;6184023;23;20031;-87
2023/10/07 11:25:51;;;;;;;12.93;5.93;;;;;;;13.41;91.43;100801.66;6207759;23;20024;-87
2023/10/07 11:28:22;;;;;;;13.30;6.72;;;;;;;13.46;91.16;100798.59;6206921;23;20025;-89
2023/10/07 11:30:49;;;;;;;10.18;5.15;;;;;;;13.51;91.69;100788.38;6183500;23;20036;-88
2023/10/07 11:33:16;;;;;;;12.73;5.97;;;;;;;13.56;91.50;100804.84;6182631;23;20024;-88
2023/10/07 11:35:56;;;;;;;11.00;5.95;;;;;;;13.57;91.51;100803.00;6157705;23;20508;-88
2023/10/07 11:38:25;;;;;;;10.98;5.20;;;;;;;13.64;90.97;100801.50;6157598;23;20024;-88
2023/10/07 11:40:52;;;;;;;12.35;4.80;;;;;;;13.67;90.62;100802.09;6183237;23;20029;-88
2023/10/07 11:43:19;;;;;;;8.20;4.10;;;;;;;13.75;90.82;100795.25;6182715;23;20082;-88
2023/10/07 11:45:47;;;;;;;9.75;4.20;;;;;;;13.77;89.88;100791.47;6210343;23;20079;-89
2023/10/07 11:48:14;;;;;;;11.18;4.75;;;;;;;13.84;89.09;100781.06;6157702;23;20016;-87
2023/10/07 11:50:41;;;;;;;11.43;4.60;;;;;;;13.85;88.94;100780.13;6158044;23;20322;-88
2023/10/07 11:53:08;;;;;;;11.07;4.72;;;;;;;13.90;87.89;100765.38;6206195;23;20437;-88
2023/10/07 11:55:35;;;;;;;11.93;4.43;;;;;;;13.92;87.52;100767.94;6181157;23;20029;-88
2023/10/07 11:58:07;;;;;;;8.93;4.15;;;;;;;13.93;87.31;100761.59;6179730;23;20030;-87
2023/10/07 12:00:34;;;;;;;11.63;4.13;;;;;;;13.97;87.18;100767.50;6157511;23;20047;-87
2023/10/07 12:03:06;;;;;;;8.88;4.28;;;;;;;14.00;87.11;100776.09;6180381;23;20023;-88
2023/10/07 12:05:37;;;;;;;9.80;4.75;;;;;;;14.02;87.72;100773.31;6204454;23;20091;-87
2023/10/07 12:08:04;;;;;;;7.60;3.97;;;;;;;14.01;87.46;100777.78;6204994;23;20440;-87
2023/10/07 12:10:39;;;;;;;6.95;3.40;;;;;;;14.02;87.58;100776.81;6156209;23;20028;-87
2023/10/07 12:13:14;;;;;;;9.27;3.60;;;;;;;14.06;87.64;100780.06;6181553;23;20024;-87
2023/10/07 12:15:42;;;;;;;10.93;3.75;;;;;;;14.07;86.90;100773.75;6158386;23;20097;-87
2023/10/07 12:18:23;;;;;;;8.60;3.80;;;;;;;14.08;86.60;100770.09;6183669;23;20449;-86
2023/10/07 12:20:53;;;;;;;10.23;3.90;;;;;;;14.09;86.57;100775.31;6180558;23;20024;-86
2023/10/07 12:23:19;;;;;;;9.73;3.47;;;;;;;14.13;86.12;100773.19;6180163;23;20098;-87
2023/10/07 12:25:47;;;;;;;9.38;3.47;;;;;;;14.17;86.28;100771.97;6156665;23;20472;-87